createdAt,value
2019-05-05T00:00:31.376Z,7.30
2019-05-05T00:03:19.346Z,8.20
2019-05-05T00:05:51.122Z,7.37
2019-05-05T00:08:24.564Z,7.60
2019-05-05T00:11:15.398Z,7.57
2019-05-05T00:13:55.421Z,7.87
2019-05-05T00:16:44.491Z,7.30
2019-05-05T00:19:29.776Z,7.27
2019-05-05T00:21:50.973Z,7.27
2019-05-05T00:24:24.404Z,7.63
2019-05-05T00:26:57.751Z,7.77
2019-05-05T00:29:29.489Z,7.50
2019-05-05T00:32:00.961Z,7.73
2019-05-05T00:34:32.407Z,6.97
2019-05-05T00:37:04.626Z,7.03
2019-05-05T00:39:37.335Z,7.10
2019-05-05T00:42:08.880Z,6.43
2019-05-05T00:44:40.791Z,6.07
2019-05-05T00:47:29.817Z,6.27
2019-05-05T00:50:05.304Z,6.57
2019-05-05T00:52:37.067Z,7.07
2019-05-05T00:55:09.379Z,6.73
2019-05-05T00:57:41.425Z,6.87
2019-05-05T01:00:25.597Z,7.17
2019-05-05T01:03:06.910Z,5.67
2019-05-05T01:06:06.173Z,6.10
2019-05-05T01:08:37.939Z,5.70
2019-05-05T01:11:09.420Z,7.00
2019-05-05T01:13:40.910Z,6.30
2019-05-05T01:16:12.875Z,6.00
2019-05-05T01:18:45.013Z,6.00
2019-05-05T01:21:16.887Z,7.13
2019-05-05T01:23:49.084Z,7.17
2019-05-05T01:26:20.552Z,7.27
2019-05-05T01:28:51.936Z,6.73
2019-05-05T01:31:25.238Z,6.57
2019-05-05T01:34:08.023Z,6.47
2019-05-05T01:36:39.541Z,6.13
2019-05-05T01:39:28.161Z,5.97
2019-05-05T01:42:02.177Z,5.40
2019-05-05T01:44:35.218Z,5.50
2019-05-05T01:47:06.941Z,5.40
2019-05-05T01:49:38.478Z,5.67
2019-05-05T01:52:10.334Z,4.83
2019-05-05T01:54:41.854Z,4.57
2019-05-05T01:57:14.769Z,4.67
2019-05-05T01:59:46.803Z,4.83
2019-05-05T02:02:19.385Z,5.27
2019-05-05T02:04:51.404Z,4.70
2019-05-05T02:07:24.880Z,4.40
2019-05-05T02:09:57.169Z,4.50
2019-05-05T02:12:30.168Z,4.13
2019-05-05T02:15:04.279Z,4.20
2019-05-05T02:17:35.825Z,4.37
2019-05-05T02:20:08.524Z,4.07
2019-05-05T02:22:40.503Z,4.23
2019-05-05T02:25:12.191Z,3.93
2019-05-05T02:27:44.731Z,4.10
2019-05-05T02:30:46.485Z,3.93
2019-05-05T02:33:19.530Z,4.50
2019-05-05T02:35:51.617Z,5.00
2019-05-05T02:38:25.826Z,4.33
2019-05-05T02:40:58.872Z,4.17
2019-05-05T02:43:34.294Z,4.10
2019-05-05T02:46:25.856Z,4.20
2019-05-05T02:49:05.011Z,3.87
2019-05-05T02:51:36.477Z,3.60
2019-05-05T02:54:08.362Z,3.70
2019-05-05T02:56:45.343Z,3.87
2019-05-05T02:59:25.461Z,3.87
2019-05-05T03:02:20.237Z,3.83
2019-05-05T03:04:55.630Z,3.60
2019-05-05T03:07:30.457Z,3.33
2019-05-05T03:10:03.709Z,3.60
2019-05-05T03:12:38.262Z,3.40
2019-05-05T03:15:11.633Z,3.60
2019-05-05T03:17:44.481Z,3.37
2019-05-05T03:20:18.042Z,2.97
2019-05-05T03:22:50.419Z,3.20
2019-05-05T03:25:24.045Z,3.03
2019-05-05T03:27:55.673Z,3.00
2019-05-05T03:30:27.579Z,3.10
2019-05-05T03:32:59.897Z,3.33
2019-05-05T03:35:31.460Z,3.13
2019-05-05T03:38:03.859Z,3.23
2019-05-05T03:40:37.253Z,2.50
2019-05-05T03:43:23.657Z,2.30
2019-05-05T03:46:01.243Z,1.97
2019-05-05T03:48:34.663Z,2.50
2019-05-05T03:51:18.122Z,2.40
2019-05-05T03:53:41.699Z,2.13
2019-05-05T03:56:14.432Z,2.90
2019-05-05T03:58:46.373Z,2.17
2019-05-05T04:01:58.536Z,2.67
2019-05-05T04:04:33.559Z,2.00
2019-05-05T04:07:05.421Z,2.30
2019-05-05T04:09:36.995Z,2.20
2019-05-05T04:12:08.751Z,2.20
2019-05-05T04:14:40.885Z,2.47
2019-05-05T04:17:44.126Z,2.07
2019-05-05T04:20:33.856Z,1.90
2019-05-05T04:23:05.400Z,2.00
2019-05-05T04:25:36.843Z,2.00
2019-05-05T04:28:09.527Z,1.63
2019-05-05T04:30:40.973Z,1.70
2019-05-05T04:33:14.290Z,1.40
2019-05-05T04:35:45.580Z,1.20
2019-05-05T04:38:17.743Z,1.60
2019-05-05T04:40:49.806Z,1.53
2019-05-05T04:43:21.304Z,1.40
2019-05-05T04:45:54.089Z,1.40
2019-05-05T04:48:40.207Z,1.50
2019-05-05T04:51:25.725Z,1.40
2019-05-05T04:54:08.393Z,1.30
2019-05-05T04:56:39.859Z,1.60
2019-05-05T04:59:11.605Z,1.50
2019-05-05T05:01:44.001Z,1.33
2019-05-05T05:04:28.449Z,1.20
2019-05-05T05:07:00.259Z,1.40
2019-05-05T05:09:31.749Z,1.47
2019-05-05T05:12:04.034Z,1.40
2019-05-05T05:14:35.584Z,1.10
2019-05-05T05:17:13.975Z,1.40
2019-05-05T05:19:46.045Z,1.20
2019-05-05T05:22:19.264Z,1.20
2019-05-05T05:24:50.746Z,1.20
2019-05-05T05:27:24.463Z,1.00
2019-05-05T05:29:56.420Z,1.02
2019-05-05T05:32:28.876Z,1.10
2019-05-05T05:35:01.124Z,1.02
2019-05-05T05:37:34.387Z,1.17
2019-05-05T05:40:14.399Z,1.20
2019-05-05T05:42:46.469Z,0.95
2019-05-05T05:45:43.667Z,1.10
2019-05-05T05:48:23.679Z,1.20
2019-05-05T05:50:58.328Z,1.10
2019-05-05T05:53:29.912Z,1.20
2019-05-05T05:56:01.652Z,1.00
2019-05-05T05:58:33.751Z,1.05
2019-05-05T06:01:05.286Z,1.30
2019-05-05T06:03:36.958Z,1.50
2019-05-05T06:06:10.013Z,1.20
2019-05-05T06:08:43.990Z,1.20
2019-05-05T06:11:16.918Z,1.10
2019-05-05T06:13:50.117Z,1.02
2019-05-05T06:16:23.459Z,0.93
2019-05-05T06:18:54.817Z,0.90
2019-05-05T06:21:26.349Z,1.10
2019-05-05T06:23:58.785Z,1.00
2019-05-05T06:26:30.222Z,1.02
2019-05-05T06:29:01.820Z,1.27
2019-05-05T06:31:34.142Z,1.20
2019-05-05T06:34:07.452Z,1.20
2019-05-05T06:36:38.843Z,1.45
2019-05-05T06:39:10.336Z,1.30
2019-05-05T06:41:58.810Z,1.40
2019-05-05T06:44:44.459Z,1.40
2019-05-05T06:47:19.474Z,1.97
2019-05-05T06:49:51.151Z,12.07
2019-05-05T06:52:24.731Z,1.67
2019-05-05T06:54:55.898Z,1.40
2019-05-05T06:57:28.281Z,1.40
2019-05-05T06:59:59.949Z,1.60
2019-05-05T07:02:34.177Z,1.77
2019-05-05T07:05:05.428Z,1.60
2019-05-05T07:07:38.110Z,1.63
2019-05-05T07:10:09.879Z,1.67
2019-05-05T07:12:43.817Z,1.90
2019-05-05T07:15:19.804Z,1.73
2019-05-05T07:17:53.478Z,1.80
2019-05-05T07:20:24.346Z,1.63
2019-05-05T07:23:02.128Z,1.60
2019-05-05T07:25:39.821Z,1.80
2019-05-05T07:28:04.378Z,1.87
2019-05-05T07:30:37.315Z,1.60
2019-05-05T07:33:09.699Z,1.80
2019-05-05T07:35:56.756Z,1.43
2019-05-05T07:38:24.398Z,2.50
2019-05-05T07:40:57.641Z,1.47
2019-05-05T07:43:29.762Z,1.50
2019-05-05T07:46:01.544Z,2.00
2019-05-05T07:48:36.546Z,3.07
2019-05-05T07:51:08.762Z,7.37
2019-05-05T07:53:41.254Z,2.13
2019-05-05T07:56:14.456Z,1.83
2019-05-05T07:58:48.150Z,5.70
2019-05-05T08:01:20.072Z,2.00
2019-05-05T08:03:53.698Z,2.70
2019-05-05T08:06:25.242Z,2.30
2019-05-05T08:08:57.635Z,1.40
2019-05-05T08:11:29.302Z,1.67
2019-05-05T08:14:00.895Z,2.07
2019-05-05T08:16:39.571Z,2.87
2019-05-05T08:19:34.625Z,2.40
2019-05-05T08:22:07.354Z,2.00
2019-05-05T08:25:04.656Z,1.20
2019-05-05T08:27:59.191Z,1.60
2019-05-05T08:31:05.226Z,1.93
2019-05-05T08:33:37.596Z,3.90
2019-05-05T08:36:09.112Z,4.93
2019-05-05T08:38:41.214Z,4.87
2019-05-05T08:41:13.974Z,2.83
2019-05-05T08:43:45.676Z,3.10
2019-05-05T08:46:18.250Z,3.93
2019-05-05T08:48:49.687Z,1.93
2019-05-05T08:51:21.264Z,3.27
2019-05-05T08:53:54.682Z,3.53
2019-05-05T08:56:26.889Z,2.17
2019-05-05T08:58:58.530Z,3.50
2019-05-05T09:01:30.908Z,4.43
2019-05-05T09:04:04.138Z,2.87
2019-05-05T09:06:37.823Z,6.37
2019-05-05T09:09:09.592Z,3.40
2019-05-05T09:11:43.503Z,8.70
2019-05-05T09:14:15.064Z,3.93
2019-05-05T09:16:46.596Z,2.93
2019-05-05T09:19:20.291Z,3.53
2019-05-05T09:21:54.134Z,4.20
2019-05-05T09:25:04.334Z,7.53
2019-05-05T09:27:57.058Z,3.03
2019-05-05T09:30:41.495Z,1.00
2019-05-05T09:33:14.269Z,1.80
2019-05-05T09:35:47.800Z,6.70
2019-05-05T09:38:20.866Z,4.33
2019-05-05T09:40:54.403Z,1.10
2019-05-05T09:43:27.659Z,3.07
2019-05-05T09:46:00.577Z,2.77
2019-05-05T09:48:33.586Z,1.03
2019-05-05T09:51:05.376Z,3.20
2019-05-05T09:53:37.208Z,1.63
2019-05-05T09:56:08.789Z,2.23
2019-05-05T09:58:40.204Z,3.60
2019-05-05T10:01:14.061Z,4.43
2019-05-05T10:03:46.305Z,4.03
2019-05-05T10:06:19.574Z,1.03
2019-05-05T10:08:51.022Z,3.67
2019-05-05T10:11:25.135Z,3.00
2019-05-05T10:13:57.502Z,3.77
2019-05-05T10:16:30.848Z,3.63
2019-05-05T10:19:04.409Z,3.87
2019-05-05T10:21:36.563Z,4.07
2019-05-05T10:24:28.558Z,2.50
2019-05-05T10:26:54.327Z,2.03
2019-05-05T10:29:25.868Z,1.80
2019-05-05T10:31:58.293Z,2.80
2019-05-05T10:34:30.882Z,2.20
2019-05-05T10:37:04.180Z,2.77
2019-05-05T10:39:51.316Z,1.20
2019-05-05T10:42:44.216Z,1.50
2019-05-05T10:45:15.983Z,2.20
2019-05-05T10:47:47.661Z,2.53
2019-05-05T10:50:20.563Z,3.03
2019-05-05T10:52:53.651Z,3.00
2019-05-05T10:55:25.427Z,2.63
2019-05-05T10:57:57.128Z,1.40
2019-05-05T11:00:46.438Z,1.00
2019-05-05T11:03:19.745Z,1.00
2019-05-05T11:05:51.183Z,1.00
2019-05-05T11:08:25.311Z,0.90
2019-05-05T11:10:58.432Z,0.90
2019-05-05T11:13:30.785Z,1.00
2019-05-05T11:16:03.982Z,1.00
2019-05-05T11:18:35.626Z,0.80
2019-05-05T11:21:07.052Z,1.10
2019-05-05T11:23:38.650Z,1.10
2019-05-05T11:26:10.269Z,1.00
2019-05-05T11:28:44.567Z,0.90
2019-05-05T11:31:17.353Z,0.93
2019-05-05T11:34:14.133Z,0.90
2019-05-05T11:37:16.390Z,0.80
2019-05-05T11:39:48.586Z,0.93
2019-05-05T11:42:20.287Z,0.80
2019-05-05T11:44:52.495Z,0.83
2019-05-05T11:47:24.555Z,1.00
2019-05-05T11:49:56.900Z,0.83
2019-05-05T11:52:28.464Z,0.90
2019-05-05T11:55:09.826Z,0.87
2019-05-05T11:57:35.016Z,0.90
2019-05-05T12:00:06.771Z,1.03
2019-05-05T12:02:38.554Z,1.10
2019-05-05T12:05:10.875Z,1.00
2019-05-05T12:07:43.862Z,1.00
2019-05-05T12:10:38.149Z,1.43
2019-05-05T12:13:14.580Z,0.83
2019-05-05T12:15:47.184Z,1.00
2019-05-05T12:18:18.690Z,1.00
2019-05-05T12:20:50.287Z,0.90
2019-05-05T12:23:21.835Z,0.80
2019-05-05T12:26:15.205Z,1.20
2019-05-05T12:28:50.730Z,0.97
2019-05-05T12:31:27.293Z,1.00
2019-05-05T12:33:59.257Z,0.80
2019-05-05T12:36:30.719Z,0.90
2019-05-05T12:39:04.036Z,0.90
2019-05-05T12:41:37.116Z,0.90
2019-05-05T12:44:14.178Z,0.73
2019-05-05T12:47:10.104Z,0.90
2019-05-05T12:49:43.993Z,0.90
2019-05-05T12:52:16.693Z,1.00
2019-05-05T12:54:49.252Z,1.00
2019-05-05T12:57:20.819Z,0.80
2019-05-05T12:59:53.649Z,0.97
2019-05-05T13:02:25.196Z,1.00
2019-05-05T13:04:56.842Z,0.90
2019-05-05T13:07:28.683Z,0.90
2019-05-05T13:10:00.655Z,1.13
2019-05-05T13:12:34.384Z,1.00
2019-05-05T13:15:11.056Z,1.20
2019-05-05T13:17:43.744Z,0.83
2019-05-05T13:20:44.426Z,1.13
2019-05-05T13:23:29.768Z,0.90
2019-05-05T13:26:10.993Z,1.00
2019-05-05T13:28:43.733Z,1.10
2019-05-05T13:31:17.383Z,1.00
2019-05-05T13:33:49.764Z,1.30
2019-05-05T13:36:24.057Z,1.17
2019-05-05T13:38:56.262Z,1.10
2019-05-05T13:41:28.632Z,1.30
2019-05-05T13:44:04.488Z,0.93
2019-05-05T13:46:37.512Z,1.10
2019-05-05T13:49:43.665Z,1.10
2019-05-05T13:52:15.738Z,1.17
2019-05-05T13:54:47.867Z,1.10
2019-05-05T13:57:20.552Z,1.20
2019-05-05T13:59:54.412Z,1.07
2019-05-05T14:02:26.780Z,1.13
2019-05-05T14:04:59.165Z,0.90
2019-05-05T14:07:30.759Z,0.97
2019-05-05T14:10:03.916Z,1.00
2019-05-05T14:12:36.653Z,1.10
2019-05-05T14:15:12.392Z,0.93
2019-05-05T14:17:44.737Z,1.00
2019-05-05T14:20:18.287Z,1.07
2019-05-05T14:22:51.313Z,1.13
2019-05-05T14:25:24.556Z,1.10
2019-05-05T14:27:57.308Z,1.07
2019-05-05T14:31:06.304Z,1.13
2019-05-05T14:33:59.208Z,0.83
2019-05-05T14:36:40.867Z,1.03
2019-05-05T14:39:14.772Z,1.03
2019-05-05T14:41:46.370Z,1.00
2019-05-05T14:44:18.685Z,1.07
2019-05-05T14:46:52.369Z,1.20
2019-05-05T14:49:26.496Z,1.40
2019-05-05T14:51:59.726Z,1.10
2019-05-05T14:54:31.212Z,1.07
2019-05-05T14:57:04.516Z,0.80
2019-05-05T14:59:37.133Z,1.10
2019-05-05T15:02:09.068Z,1.10
2019-05-05T15:04:43.775Z,1.00
2019-05-05T15:07:28.981Z,1.03
2019-05-05T15:10:35.336Z,1.00
2019-05-05T15:13:09.789Z,1.07
2019-05-05T15:15:42.218Z,1.27
2019-05-05T15:18:14.697Z,1.33
2019-05-05T15:20:46.750Z,1.37
2019-05-05T15:23:18.310Z,1.23
2019-05-05T15:25:49.783Z,1.20
2019-05-05T15:28:24.317Z,1.07
2019-05-05T15:30:55.202Z,1.10
2019-05-05T15:33:26.739Z,1.20
2019-05-05T15:35:59.119Z,1.10
2019-05-05T15:38:31.820Z,1.27
2019-05-05T15:41:03.957Z,1.30
2019-05-05T15:43:35.559Z,1.00
2019-05-05T15:46:07.192Z,1.00
2019-05-05T15:48:38.857Z,1.20
2019-05-05T15:51:10.395Z,1.20
2019-05-05T15:53:41.943Z,1.20
2019-05-05T15:56:13.897Z,1.37
2019-05-05T15:58:46.311Z,1.10
2019-05-05T16:01:19.592Z,1.20
2019-05-05T16:03:51.146Z,1.07
2019-05-05T16:06:23.761Z,1.10
2019-05-05T16:08:56.700Z,1.23
2019-05-05T16:11:28.410Z,1.30
2019-05-05T16:14:01.201Z,1.10
2019-05-05T16:16:57.827Z,1.13
2019-05-05T16:19:57.440Z,1.20
2019-05-05T16:22:34.540Z,1.10
2019-05-05T16:25:14.198Z,1.30
2019-05-05T16:27:46.459Z,1.40
2019-05-05T16:30:19.480Z,1.20
2019-05-05T16:32:54.824Z,1.27
2019-05-05T16:35:24.375Z,1.73
2019-05-05T16:37:56.819Z,2.10
2019-05-05T16:40:28.382Z,1.60
2019-05-05T16:43:00.456Z,1.40
2019-05-05T16:45:34.030Z,1.30
2019-05-05T16:48:05.702Z,1.40
2019-05-05T16:50:38.629Z,1.27
2019-05-05T16:53:30.669Z,1.50
2019-05-05T16:56:04.381Z,1.50
2019-05-05T16:58:36.975Z,1.30
2019-05-05T17:01:14.209Z,1.00
2019-05-05T17:03:45.935Z,1.30
2019-05-05T17:06:17.532Z,1.33
2019-05-05T17:08:49.189Z,1.10
2019-05-05T17:11:20.646Z,1.40
2019-05-05T17:14:13.059Z,1.10
2019-05-05T17:17:07.317Z,1.33
2019-05-05T17:19:51.500Z,1.53
2019-05-05T17:22:29.612Z,1.33
2019-05-05T17:25:03.597Z,2.07
2019-05-05T17:27:47.664Z,1.37
2019-05-05T17:30:10.047Z,1.30
2019-05-05T17:32:43.713Z,1.40
2019-05-05T17:35:15.769Z,2.27
2019-05-05T17:37:47.305Z,2.13
2019-05-05T17:40:25.534Z,1.80
2019-05-05T17:43:24.354Z,1.50
2019-05-05T17:46:15.785Z,1.40
2019-05-05T17:49:06.193Z,2.07
2019-05-05T17:51:56.902Z,1.43
2019-05-05T17:54:41.433Z,1.30
2019-05-05T17:57:14.260Z,1.30
2019-05-05T17:59:46.046Z,1.60
2019-05-05T18:02:17.834Z,2.53
2019-05-05T18:04:49.369Z,3.90
2019-05-05T18:07:26.822Z,4.03
2019-05-05T18:10:08.590Z,2.53
2019-05-05T18:13:04.839Z,4.57
2019-05-05T18:15:49.521Z,2.27
2019-05-05T18:18:21.030Z,1.83
2019-05-05T18:20:54.228Z,2.13
2019-05-05T18:23:27.566Z,1.43
2019-05-05T18:26:00.661Z,2.13
2019-05-05T18:28:34.057Z,1.97
2019-05-05T18:31:06.180Z,1.70
2019-05-05T18:33:38.615Z,2.10
2019-05-05T18:36:10.225Z,2.63
2019-05-05T18:38:44.255Z,3.37
2019-05-05T18:41:23.681Z,2.93
2019-05-05T18:44:08.482Z,2.50
2019-05-05T18:46:40.998Z,2.67
2019-05-05T18:49:13.889Z,2.73
2019-05-05T18:51:47.415Z,2.93
2019-05-05T18:54:19.582Z,2.83
2019-05-05T18:56:51.043Z,3.10
2019-05-05T18:59:23.988Z,3.67
2019-05-05T19:02:14.410Z,4.70
2019-05-05T19:04:57.396Z,5.33
2019-05-05T19:07:55.597Z,4.73
2019-05-05T19:10:24.289Z,3.73
2019-05-05T19:12:56.704Z,4.30
2019-05-05T19:15:31.112Z,4.30
2019-05-05T19:18:04.352Z,4.30
2019-05-05T19:20:54.209Z,5.60
2019-05-05T19:23:26.288Z,5.20
2019-05-05T19:25:59.320Z,4.10
2019-05-05T19:28:42.115Z,4.00
2019-05-05T19:31:05.585Z,4.13
2019-05-05T19:33:37.377Z,4.10
2019-05-05T19:36:08.801Z,4.30
2019-05-05T19:38:40.333Z,5.60
2019-05-05T19:41:13.836Z,9.20
2019-05-05T19:43:54.699Z,15.33
2019-05-05T19:46:34.671Z,15.80
2019-05-05T19:49:17.700Z,22.63
2019-05-05T19:51:50.405Z,45.47
2019-05-05T19:54:23.667Z,67.77
2019-05-05T19:56:55.217Z,89.10
2019-05-05T19:59:27.646Z,69.10
2019-05-05T20:02:00.151Z,28.90
2019-05-05T20:04:33.705Z,52.67
2019-05-05T20:07:05.996Z,34.47
2019-05-05T20:09:37.619Z,27.47
2019-05-05T20:12:10.061Z,23.43
2019-05-05T20:14:43.587Z,26.80
2019-05-05T20:17:22.031Z,40.40
2019-05-05T20:19:54.665Z,58.10
2019-05-05T20:22:27.601Z,42.37
2019-05-05T20:25:00.039Z,35.47
2019-05-05T20:27:31.775Z,28.20
2019-05-05T20:30:06.297Z,36.60
2019-05-05T20:32:46.161Z,23.43
2019-05-05T20:35:25.004Z,33.83
2019-05-05T20:38:21.056Z,31.43
2019-05-05T20:41:14.251Z,42.70
2019-05-05T20:43:46.849Z,43.07
2019-05-05T20:46:18.333Z,34.73
2019-05-05T20:48:49.906Z,39.33
2019-05-05T20:51:21.410Z,55.23
2019-05-05T20:53:54.231Z,29.77
2019-05-05T20:56:26.571Z,30.87
2019-05-05T20:58:58.311Z,24.10
2019-05-05T21:01:29.857Z,21.40
2019-05-05T21:04:04.581Z,26.57
2019-05-05T21:06:36.949Z,26.43
2019-05-05T21:09:08.717Z,29.40
2019-05-05T21:11:40.800Z,30.23
2019-05-05T21:14:14.818Z,23.17
2019-05-05T21:16:48.359Z,24.03
2019-05-05T21:19:21.280Z,25.83
2019-05-05T21:21:54.833Z,26.27
2019-05-05T21:24:26.626Z,29.70
2019-05-05T21:27:00.824Z,28.33
2019-05-05T21:29:41.422Z,29.47
2019-05-05T21:32:05.796Z,28.40
2019-05-05T21:34:38.741Z,25.53
2019-05-05T21:37:10.306Z,30.23
2019-05-05T21:39:42.797Z,23.40
2019-05-05T21:42:14.623Z,21.63
2019-05-05T21:44:46.715Z,21.97
2019-05-05T21:47:18.322Z,19.53
2019-05-05T21:49:50.797Z,18.97
2019-05-05T21:52:34.949Z,21.53
2019-05-05T21:55:16.416Z,15.93
2019-05-05T21:57:56.534Z,16.03
2019-05-05T22:00:45.474Z,21.17
2019-05-05T22:03:24.571Z,35.23
2019-05-05T22:05:56.159Z,33.20
2019-05-05T22:08:28.818Z,22.87
2019-05-05T22:11:03.899Z,22.37
2019-05-05T22:13:36.561Z,22.67
2019-05-05T22:16:09.203Z,18.50
2019-05-05T22:18:40.801Z,16.67
2019-05-05T22:21:38.151Z,17.53
2019-05-05T22:24:28.121Z,16.77
2019-05-05T22:27:00.414Z,16.23
2019-05-05T22:29:34.095Z,15.93
2019-05-05T22:32:06.318Z,14.60
2019-05-05T22:34:40.127Z,15.97
2019-05-05T22:37:11.623Z,14.73
2019-05-05T22:39:44.572Z,14.87
2019-05-05T22:42:16.222Z,14.67
2019-05-05T22:44:47.736Z,16.57
2019-05-05T22:47:20.204Z,18.43
2019-05-05T22:49:53.785Z,19.17
2019-05-05T22:52:25.488Z,16.53
2019-05-05T22:54:57.383Z,16.53
2019-05-05T22:57:28.843Z,14.17
2019-05-05T23:00:00.753Z,14.07
2019-05-05T23:02:34.803Z,12.47
2019-05-05T23:05:17.146Z,13.67
2019-05-05T23:07:48.573Z,12.47
2019-05-05T23:10:20.208Z,13.33
2019-05-05T23:12:51.732Z,13.77
2019-05-05T23:15:25.334Z,12.83
2019-05-05T23:18:21.382Z,13.87
2019-05-05T23:21:15.612Z,12.87
2019-05-05T23:24:03.889Z,12.50
2019-05-05T23:26:38.963Z,12.43
2019-05-05T23:29:11.075Z,11.60
2019-05-05T23:31:44.283Z,11.93
2019-05-05T23:34:15.933Z,12.70
2019-05-05T23:36:48.966Z,12.90
2019-05-05T23:39:20.431Z,12.47
2019-05-05T23:41:51.888Z,12.97
2019-05-05T23:44:23.875Z,12.87
2019-05-05T23:46:55.463Z,13.03
2019-05-05T23:49:29.311Z,13.30
2019-05-05T23:52:00.839Z,14.23
2019-05-05T23:54:34.323Z,13.70
2019-05-05T23:57:06.043Z,15.13
2019-05-05T23:59:38.158Z,14.10
